San Gregorio, California
Current Conditions -  °F | °C
As of 12:25 AM on Friday 31 Oct 2014 (Local Time) from KHAF Reporting Station
Overcast Overcast  
Wind Chill: 59°   Ceiling: 2000
Heat Index: 59°   Visibility: 10mi
Dew Point: 55°   Wind: 7mph
Humidity: 88%   Direction: 150°SSE
Pressure: 29.92"   Gusts: NA
Location:  37.33°N, 122.39°W
Report Text: KHAF 310725Z AUTO 15006KT 10SM OVC020 15/13 A2992 RMK AO2
Loading
Personal Weather Stations






























Interactive Weather Map
Tropical Storm Tracking
New forecast layout! Learn more

10-Day Weather Forecast

Advertisements
Track Severe Weather on mobile